Fall Creek, Wisconsin
Current Conditions -  °F | °C
As of 6:56 PM on Friday 24 Oct 2014 (Local Time) from KEAU Reporting Station
Overcast Overcast  
Wind Chill: 57°   Ceiling: 1200
Heat Index: 57°   Visibility: 8mi
Dew Point: 55°   Wind: 6mph
Humidity: 93%   Direction: 230°SW
Pressure: 29.87"   Gusts: NA
Location:  44.76°N, 91.28°W
Report Text: KEAU 242356Z 23005KT 8SM SCT006 BKN012 OVC021 14/13 A2987 RMK AO2 SLP117 T01390128 10156 20139 51005
Loading
Personal Weather Stations






























Interactive Weather Map
Tropical Storm Tracking
New forecast layout! Learn more

10-Day Weather Forecast

Advertisements
Track Severe Weather on mobile